Time;durP1;ratioP1;P1;durP2;ratioP2;P2;SDS_P1;SDS_P2;PMS_P1;PMS_P2;Temp;Humidity;BMP_temperature;BMP_pressure;BME280_temperature;BME280_humidity;BME280_pressure;Samples;Min_cycle;Max_cycle;Signal;HPM_P1;HPM_P2
2023/07/11 03:03:56;;;;;;;15.50;10.30;;;;;;;18.92;96.61;99060.70;262977;1305;545144;-77
2023/07/11 03:09:58;;;;;;;13.60;9.70;;;;;;;18.89;96.48;99065.34;268057;1280;22949;-78
2023/07/11 03:16:02;;;;;;;15.60;10.30;;;;;;;18.92;96.78;99067.40;271752;1278;102726;-77
2023/07/11 03:22:04;;;;;;;13.60;10.10;;;;;;;18.99;96.99;99072.19;271981;1266;22195;-78
2023/07/11 03:28:06;;;;;;;14.00;9.50;;;;;;;19.03;96.90;99078.89;268170;1277;25335;-77
2023/07/11 03:34:28;;;;;;;16.40;9.60;;;;;;;19.06;96.90;99076.77;266994;1279;22564;-77
2023/07/11 03:40:39;;;;;;;13.30;9.30;;;;;;;19.07;97.25;99080.00;267100;1269;22623;-78
2023/07/11 03:46:40;;;;;;;11.20;9.50;;;;;;;19.07;97.19;99080.72;267379;1273;22572;-77
2023/07/11 03:52:52;;;;;;;14.90;9.10;;;;;;;19.07;97.34;99082.79;268893;1277;22418;-76
2023/07/11 03:58:57;;;;;;;11.00;8.80;;;;;;;19.08;97.71;99081.55;269382;1277;22892;-77
2023/07/11 04:04:59;;;;;;;16.30;9.70;;;;;;;19.09;97.82;99083.42;271805;1277;23497;-77
2023/07/11 04:11:01;;;;;;;18.40;10.30;;;;;;;19.14;97.87;99085.64;268763;1276;22665;-78
2023/07/11 04:17:03;;;;;;;13.40;9.30;;;;;;;19.17;97.76;99085.96;268146;1279;22664;-77
2023/07/11 04:23:04;;;;;;;14.20;10.30;;;;;;;19.18;97.87;99089.44;268506;1279;22642;-76
2023/07/11 04:29:06;;;;;;;15.60;9.80;;;;;;;19.18;98.24;99094.19;269941;1267;23753;-78
2023/07/11 04:35:29;;;;;;;14.70;9.30;;;;;;;19.15;98.41;99096.87;272163;1279;22386;-77
2023/07/11 04:41:41;;;;;;;11.90;8.90;;;;;;;19.13;98.32;99101.51;272086;1267;22480;-77
2023/07/11 04:47:42;;;;;;;18.20;9.80;;;;;;;19.12;98.42;99108.66;271568;1278;22395;-77
2023/07/11 04:53:44;;;;;;;12.30;8.60;;;;;;;19.11;98.56;99113.77;272059;1279;22776;-77
2023/07/11 04:59:46;;;;;;;15.50;8.90;;;;;;;19.12;98.87;99115.65;269874;1276;22577;-77
2023/07/11 05:05:48;;;;;;;12.70;9.40;;;;;;;19.14;98.93;99122.19;267779;1277;24920;-78
2023/07/11 05:11:50;;;;;;;11.60;8.30;;;;;;;19.20;98.81;99131.58;271622;1276;22201;-77
2023/07/11 05:18:05;;;;;;;11.10;8.60;;;;;;;19.25;98.76;99134.32;271843;1270;23034;-77
2023/07/11 05:24:08;;;;;;;12.50;9.50;;;;;;;19.30;98.88;99138.11;272244;1263;22414;-77
2023/07/11 05:30:12;;;;;;;13.10;8.20;;;;;;;19.40;99.00;99135.22;270589;1273;23834;-78
2023/07/11 05:36:39;;;;;;;12.80;8.90;;;;;;;19.49;98.56;99136.44;269717;1276;22526;-77
2023/07/11 05:42:41;;;;;;;12.70;8.80;;;;;;;19.59;98.27;99137.79;269678;1267;23819;-78
2023/07/11 05:48:43;;;;;;;8.60;7.10;;;;;;;19.73;98.02;99137.08;268407;1276;22564;-78
2023/07/11 05:54:45;;;;;;;14.10;8.50;;;;;;;19.87;97.85;99139.20;267927;1259;22600;-77
2023/07/11 06:00:47;;;;;;;15.00;7.70;;;;;;;19.96;97.14;99142.52;268716;1275;22682;-77
2023/07/11 06:06:49;;;;;;;10.50;7.80;;;;;;;20.09;97.05;99146.03;269103;1273;22844;-77
2023/07/11 06:12:52;;;;;;;9.60;8.00;;;;;;;20.19;96.58;99144.86;268930;1275;22440;-77
2023/07/11 06:18:55;;;;;;;11.20;7.30;;;;;;;20.23;95.79;99141.20;268214;1266;22639;-77
2023/07/11 06:24:59;;;;;;;10.80;7.30;;;;;;;20.30;95.69;99141.02;268439;1276;22535;-77
2023/07/11 06:31:19;;;;;;;11.80;8.00;;;;;;;20.44;95.74;99144.79;271278;1265;22346;-81
2023/07/11 06:37:24;;;;;;;9.10;7.90;;;;;;;20.56;95.11;99146.45;271893;1270;23038;-81
2023/07/11 06:43:27;;;;;;;9.50;7.50;;;;;;;20.72;94.78;99150.52;271953;1276;22506;-77
2023/07/11 06:49:30;;;;;;;9.80;7.00;;;;;;;20.78;93.89;99146.05;272274;1273;22467;-78
2023/07/11 06:56:00;;;;;;;9.00;7.20;;;;;;;21.11;93.88;99138.48;272122;1276;22228;-78
2023/07/11 07:02:03;;;;;;;8.30;6.20;;;;;;;21.67;92.54;99141.80;271894;1276;22246;-78
2023/07/11 07:08:25;;;;;;;9.90;6.70;;;;;;;22.34;91.28;99133.08;272224;1273;22458;-78
2023/07/11 07:14:27;;;;;;;8.70;5.70;;;;;;;23.08;89.62;99130.14;271994;1275;23691;-77
2023/07/11 07:20:28;;;;;;;10.80;5.40;;;;;;;23.76;87.00;99127.14;270126;1274;25290;-78
2023/07/11 07:26:30;;;;;;;8.10;5.80;;;;;;;24.27;85.15;99120.63;270484;1276;24202;-76
2023/07/11 07:32:32;;;;;;;7.20;5.50;;;;;;;24.55;83.49;99121.65;271617;1275;22369;-76
2023/07/11 07:38:34;;;;;;;8.10;4.90;;;;;;;24.45;81.35;99119.98;272132;1272;22792;-76
2023/07/11 07:44:36;;;;;;;8.90;5.70;;;;;;;24.37;80.37;99120.21;271995;1270;24434;-76
2023/07/11 07:50:38;;;;;;;8.10;5.30;;;;;;;24.52;79.34;99119.48;271672;1263;23071;-78
2023/07/11 07:56:39;;;;;;;7.80;4.40;;;;;;;24.65;78.27;99120.22;272361;1271;22213;-78
2023/07/11 08:03:02;;;;;;;6.60;4.50;;;;;;;24.69;77.41;99119.89;272303;1263;22477;-78
2023/07/11 08:09:25;;;;;;;6.20;4.60;;;;;;;24.53;75.80;99126.59;270646;1270;23138;-78
2023/07/11 08:15:47;;;;;;;7.20;4.80;;;;;;;24.35;74.56;99127.83;269692;1275;22448;-79
2023/07/11 08:21:49;;;;;;;6.40;4.70;;;;;;;24.32;73.64;99133.29;271959;1273;22407;-79
2023/07/11 08:27:51;;;;;;;7.00;4.50;;;;;;;24.15;72.58;99137.79;272323;1266;22406;-78
2023/07/11 08:35:17;;;;;;;8.20;4.90;;;;;;;24.04;72.30;99138.63;272145;1270;22681;-80
2023/07/11 08:41:39;;;;;;;7.70;4.20;;;;;;;24.26;71.41;99137.13;272131;1274;22195;-81
2023/07/11 08:48:03;;;;;;;7.10;4.20;;;;;;;24.29;70.32;99130.70;272755;1273;22201;-78
2023/07/11 08:55:00;;;;;;;6.20;4.10;;;;;;;24.46;69.70;99128.27;272533;1276;22185;-75
2023/07/11 09:01:03;;;;;;;;;;;;;;;24.54;68.84;99126.25;271625;1275;22608;-79
2023/07/11 09:07:09;;;;;;;9.00;4.20;;;;;;;24.69;68.11;99122.77;270759;1272;22377;-79
2023/07/11 09:13:20;;;;;;;;;;;;;;;24.80;67.32;99124.91;271055;1273;22822;-78
2023/07/11 09:19:55;;;;;;;9.00;4.60;;;;;;;24.79;66.32;99124.23;271688;1274;23498;-80
2023/07/11 09:26:00;;;;;;;9.70;4.90;;;;;;;24.91;65.95;99127.21;272354;1276;23279;-82
2023/07/11 09:32:04;;;;;;;8.60;4.80;;;;;;;25.15;65.13;99128.77;271022;1275;22558;-77
2023/07/11 09:38:08;;;;;;;5.90;3.80;;;;;;;25.49;64.77;99128.40;270005;1273;23355;-78
2023/07/11 09:44:10;;;;;;;7.40;4.10;;;;;;;25.98;63.14;99130.77;271112;1276;22503;-77
2023/07/11 09:50:52;;;;;;;4.80;4.00;;;;;;;26.34;61.84;99128.88;271148;1275;22526;-78
2023/07/11 09:56:57;;;;;;;7.80;3.80;;;;;;;26.51;60.38;99123.59;270890;1276;22439;-77
2023/07/11 10:02:59;;;;;;;6.90;3.60;;;;;;;26.24;59.53;99128.71;272365;1276;22226;-78
2023/07/11 10:09:18;;;;;;;4.20;3.70;;;;;;;26.36;58.68;99130.21;272291;1276;22973;-78
2023/07/11 10:15:24;;;;;;;9.20;3.80;;;;;;;26.53;58.30;99125.05;272294;1276;22418;-78
2023/07/11 10:21:28;;;;;;;3.60;3.20;;;;;;;26.64;57.66;99131.46;272438;1266;22422;-78
2023/07/11 10:27:51;;;;;;;6.00;3.40;;;;;;;26.72;56.90;99124.70;272216;1269;22368;-78
2023/07/11 10:33:58;;;;;;;4.50;3.20;;;;;;;26.66;56.49;99128.95;272389;1273;22372;-77
2023/07/11 10:40:13;;;;;;;5.10;3.20;;;;;;;26.88;55.55;99119.11;272422;1273;22231;-78
2023/07/11 10:46:58;;;;;;;4.30;2.90;;;;;;;27.24;54.54;99119.29;272370;1276;22301;-79
2023/07/11 10:53:07;;;;;;;8.10;4.20;;;;;;;27.70;53.81;99113.41;273270;1270;22201;-79
2023/07/11 10:59:11;;;;;;;4.10;3.60;;;;;;;27.67;53.57;99116.89;272677;1270;22278;-77
2023/07/11 11:05:25;;;;;;;7.70;3.60;;;;;;;27.59;52.55;99116.52;273266;1269;22404;-77
2023/07/11 11:11:46;;;;;;;5.40;3.60;;;;;;;27.88;52.58;99105.06;272737;1259;23973;-77
2023/07/11 11:18:08;;;;;;;5.30;3.80;;;;;;;27.95;52.40;99109.61;273167;1269;22403;-78
2023/07/11 11:24:33;;;;;;;4.00;3.60;;;;;;;27.57;52.32;99112.38;272952;1270;23027;-77
2023/07/11 11:31:05;;;;;;;7.40;3.80;;;;;;;27.21;51.82;99109.14;272853;1269;22516;-78
2023/07/11 11:37:23;;;;;;;4.80;3.40;;;;;;;26.72;51.74;99111.11;273182;1272;22446;-78
2023/07/11 11:43:26;;;;;;;5.40;3.40;;;;;;;27.15;51.40;99103.70;273083;1263;22226;-78
2023/07/11 11:49:28;;;;;;;4.60;3.60;;;;;;;27.36;50.50;99102.63;273110;1269;22435;-77
2023/07/11 11:55:37;;;;;;;4.10;3.60;;;;;;;27.25;50.73;99103.45;272767;1269;22216;-77
2023/07/11 12:01:41;;;;;;;4.60;3.40;;;;;;;27.59;50.48;99103.52;273145;1269;23545;-77
2023/07/11 12:08:07;;;;;;;6.00;3.90;;;;;;;27.70;50.05;99102.04;273183;1270;23722;-77
2023/07/11 12:14:46;;;;;;;5.60;3.50;;;;;;;27.21;49.79;99098.36;272764;1268;22089;-78
2023/07/11 12:21:21;;;;;;;5.50;4.00;;;;;;;27.15;50.18;99094.46;273529;1270;22192;-77
2023/07/11 12:28:01;;;;;;;6.40;3.60;;;;;;;27.06;50.18;99095.02;273235;1269;22198;-77
2023/07/11 12:34:11;;;;;;;4.60;3.30;;;;;;;26.92;50.29;99094.97;273160;1270;22327;-78
2023/07/11 12:40:21;;;;;;;3.70;3.30;;;;;;;26.70;49.49;99095.86;272207;1269;22815;-78
2023/07/11 12:46:31;;;;;;;4.70;3.10;;;;;;;26.42;49.24;99101.08;270699;1269;25362;-80
2023/07/11 12:52:34;;;;;;;6.20;3.70;;;;;;;26.29;49.49;99099.27;272248;1267;22167;-76
2023/07/11 12:58:35;;;;;;;4.10;3.40;;;;;;;26.39;49.49;99087.73;272839;1270;23798;-78
2023/07/11 13:04:43;;;;;;;4.30;3.20;;;;;;;26.26;48.37;99095.05;272895;1270;22377;-76
2023/07/11 13:10:56;;;;;;;7.10;3.40;;;;;;;25.97;48.40;99096.19;272174;1270;22648;-77
2023/07/11 13:16:58;;;;;;;3.50;3.10;;;;;;;25.83;49.38;99091.73;271803;1270;22421;-76
2023/07/11 13:23:02;;;;;;;4.20;3.20;;;;;;;25.81;49.49;99090.59;272349;1269;23080;-77
2023/07/11 13:29:25;;;;;;;4.60;3.30;;;;;;;25.82;49.91;99087.46;272935;1257;22425;-77
2023/07/11 13:35:32;;;;;;;3.40;2.80;;;;;;;25.80;49.34;99092.30;273445;1269;22358;-77
2023/07/11 13:41:36;;;;;;;5.30;3.30;;;;;;;25.81;49.23;99089.83;272815;1269;26349;-76
2023/07/11 13:47:40;;;;;;;5.90;3.90;;;;;;;25.88;49.00;99084.23;272721;1269;23233;-77
2023/07/11 13:54:07;;;;;;;6.20;3.50;;;;;;;25.81;49.22;99077.65;272908;1260;22442;-78
2023/07/11 14:00:17;;;;;;;4.70;2.70;;;;;;;25.65;49.31;99076.05;273148;1269;22445;-76
2023/07/11 14:06:20;;;;;;;7.50;3.50;;;;;;;25.39;49.77;99079.48;273271;1270;22385;-77
2023/07/11 14:12:22;;;;;;;5.20;3.30;;;;;;;25.24;50.05;99079.29;273082;1268;23662;-77
2023/07/11 14:18:33;;;;;;;4.90;3.30;;;;;;;25.26;50.47;99076.39;273109;1259;22249;-78
2023/07/11 14:24:35;;;;;;;3.90;3.30;;;;;;;25.27;50.01;99073.57;273870;1269;22237;-77
2023/07/11 14:30:37;;;;;;;5.50;3.00;;;;;;;25.20;50.03;99072.58;271131;1269;22548;-76
2023/07/11 14:36:38;;;;;;;6.20;3.20;;;;;;;25.08;49.97;99076.27;271497;1269;22399;-78
2023/07/11 14:43:00;;;;;;;3.60;3.30;;;;;;;25.12;49.64;99071.04;272411;1269;23538;-78
2023/07/11 14:49:03;;;;;;;4.10;3.20;;;;;;;25.10;49.62;99071.67;273539;1267;22354;-77
2023/07/11 14:55:28;;;;;;;4.00;3.00;;;;;;;24.99;50.02;99073.98;273645;1270;22196;-77
2023/07/11 15:01:29;;;;;;;6.60;3.10;;;;;;;24.87;50.16;99065.98;273273;1266;22217;-77
2023/07/11 15:07:31;;;;;;;4.40;3.40;;;;;;;24.82;50.90;99065.27;273248;1259;22393;-77
2023/07/11 15:13:38;;;;;;;5.40;3.20;;;;;;;24.87;51.35;99064.69;273311;1261;239595;-77
2023/07/11 15:19:41;;;;;;;4.40;3.10;;;;;;;24.99;51.40;99061.89;273164;1269;22474;-77
2023/07/11 15:25:44;;;;;;;4.60;3.10;;;;;;;25.07;50.86;99056.41;273122;1270;22226;-77
2023/07/11 15:31:47;;;;;;;4.10;3.20;;;;;;;24.94;51.19;99056.06;273126;1270;23564;-77
2023/07/11 15:37:53;;;;;;;7.10;3.30;;;;;;;24.76;51.76;99055.94;273408;1270;22437;-77
2023/07/11 15:43:54;;;;;;;4.40;3.10;;;;;;;24.71;51.63;99054.39;273560;1269;22227;-77
2023/07/11 15:50:01;;;;;;;4.60;3.10;;;;;;;24.80;51.77;99047.66;273506;1269;22455;-77
2023/07/11 15:56:03;;;;;;;5.20;3.00;;;;;;;24.92;51.68;99050.88;273569;1260;22301;-77
2023/07/11 16:02:27;;;;;;;7.00;3.00;;;;;;;25.01;51.31;99046.60;273463;1269;22379;-78
2023/07/11 16:08:36;;;;;;;5.60;3.20;;;;;;;25.06;51.26;99043.40;273559;1269;22455;-78
2023/07/11 16:14:42;;;;;;;4.70;3.30;;;;;;;25.06;51.16;99044.92;273358;1270;22481;-78
2023/07/11 16:21:07;;;;;;;5.00;3.00;;;;;;;25.04;51.11;99040.20;273548;1257;22480;-77
2023/07/11 16:27:26;;;;;;;5.30;3.10;;;;;;;24.99;50.36;99038.77;273596;1260;22633;-78
2023/07/11 16:33:29;;;;;;;7.40;3.30;;;;;;;24.94;50.22;99035.49;273551;1269;22171;-77
2023/07/11 16:39:31;;;;;;;6.70;3.10;;;;;;;24.86;50.55;99033.55;273577;1269;22942;-77
2023/07/11 16:45:53;;;;;;;6.80;2.90;;;;;;;24.73;50.23;99029.29;273238;1269;22320;-77
2023/07/11 16:52:12;;;;;;;4.60;3.00;;;;;;;24.71;49.65;99037.75;273500;1269;22619;-78
2023/07/11 16:58:38;;;;;;;6.10;3.40;;;;;;;24.70;50.02;99035.55;273478;1269;22219;-77
2023/07/11 17:04:53;;;;;;;6.20;3.10;;;;;;;24.63;49.64;99037.05;272533;1264;22524;-77
2023/07/11 17:10:55;;;;;;;3.40;2.70;;;;;;;24.55;49.48;99033.63;271680;1267;25249;-76
2023/07/11 17:17:18;;;;;;;2.90;2.50;;;;;;;24.50;49.56;99036.34;272047;1266;22435;-77
2023/07/11 17:23:24;;;;;;;7.60;2.50;;;;;;;24.41;49.45;99031.55;271540;1256;22567;-77
2023/07/11 17:29:37;;;;;;;8.60;2.90;;;;;;;24.29;49.62;99027.10;273712;1266;22608;-77
2023/07/11 17:35:39;;;;;;;7.30;3.30;;;;;;;24.21;49.62;99025.40;271760;1256;22520;-77
2023/07/11 17:41:42;;;;;;;7.30;3.10;;;;;;;24.13;49.63;99024.30;272128;1266;22283;-78
2023/07/11 17:47:43;;;;;;;10.70;3.10;;;;;;;24.04;49.48;99019.52;273263;1266;22229;-77
2023/07/11 17:53:45;;;;;;;9.00;3.40;;;;;;;23.94;49.42;99022.30;272416;1266;22534;-81
2023/07/11 17:59:47;;;;;;;14.20;3.40;;;;;;;23.84;49.40;99024.50;270982;1259;22598;-80
2023/07/11 18:06:04;;;;;;;7.40;4.10;;;;;;;23.76;49.45;99025.46;272180;1266;22233;-78
2023/07/11 18:12:17;;;;;;;8.30;5.20;;;;;;;23.65;49.73;99019.69;273786;1266;22185;-78
2023/07/11 18:18:24;;;;;;;9.80;5.20;;;;;;;23.53;50.21;99019.23;273717;1260;23413;-77
2023/07/11 18:24:26;;;;;;;;;;;;;;;23.38;50.45;99027.77;273937;1266;22453;-77
2023/07/11 18:30:29;;;;;;;6.00;3.40;;;;;;;23.19;50.97;99032.31;273911;1266;22482;-77
2023/07/11 18:36:31;;;;;;;4.30;3.30;;;;;;;22.97;51.86;99032.83;273900;1266;22276;-78
2023/07/11 18:42:33;;;;;;;4.70;3.70;;;;;;;22.78;52.79;99036.36;273980;1266;22388;-77
2023/07/11 18:48:35;;;;;;;5.50;3.50;;;;;;;22.55;53.56;99043.23;273938;1254;22513;-78
2023/07/11 18:54:36;;;;;;;10.60;4.50;;;;;;;22.30;54.15;99048.05;273777;1256;22191;-78
2023/07/11 19:00:43;;;;;;;7.40;4.40;;;;;;;22.05;55.23;99046.23;272931;1266;22541;-77
2023/07/11 19:06:46;;;;;;;5.80;3.50;;;;;;;21.81;55.99;99049.20;272558;1256;22376;-77
2023/07/11 19:12:48;;;;;;;7.70;3.70;;;;;;;21.53;58.00;99050.72;273680;1266;22579;-77
2023/07/11 19:18:52;;;;;;;5.60;3.70;;;;;;;21.21;58.39;99058.59;272616;1263;22377;-76
2023/07/11 19:24:53;;;;;;;6.20;4.10;;;;;;;20.93;58.86;99056.77;271562;1263;22514;-78
2023/07/11 19:31:00;;;;;;;7.50;3.90;;;;;;;20.63;59.26;99049.60;273232;1266;23647;-77
2023/07/11 19:37:03;;;;;;;7.80;4.30;;;;;;;20.39;59.79;99051.34;273688;1266;22278;-76
2023/07/11 19:43:04;;;;;;;7.60;3.90;;;;;;;20.13;60.97;99049.86;273807;1266;23266;-77
2023/07/11 19:49:08;;;;;;;6.10;4.20;;;;;;;19.86;62.98;99041.36;273817;1263;22377;-77
2023/07/11 19:55:10;;;;;;;8.70;4.70;;;;;;;19.62;62.57;99040.13;265737;1266;10002297;-77
2023/07/11 20:01:12;;;;;;;10.40;3.90;;;;;;;19.43;63.15;99035.76;272852;1266;23426;-78
2023/07/11 20:07:14;;;;;;;6.70;4.00;;;;;;;19.30;64.09;99037.88;273742;1266;23567;-77
2023/07/11 20:13:18;;;;;;;14.10;5.10;;;;;;;19.07;65.40;99029.58;273677;1266;22396;-77
2023/07/11 20:19:24;;;;;;;6.50;4.70;;;;;;;18.89;66.11;99024.05;273845;1255;23263;-77
2023/07/11 20:25:26;;;;;;;10.20;4.80;;;;;;;18.68;66.50;99023.77;273833;1266;22425;-77
2023/07/11 20:31:28;;;;;;;8.60;4.40;;;;;;;18.49;67.23;99020.69;273639;1266;23800;-77
2023/07/11 20:37:29;;;;;;;7.10;4.30;;;;;;;18.36;67.56;99016.49;273880;1254;22377;-77
2023/07/11 20:43:31;;;;;;;9.20;4.50;;;;;;;18.25;69.16;99021.61;271949;1256;22190;-78
2023/07/11 20:49:35;;;;;;;8.60;4.30;;;;;;;18.13;70.09;99023.19;271558;1266;23083;-77
2023/07/11 20:55:37;;;;;;;7.70;4.60;;;;;;;17.88;70.47;99019.14;272418;1266;22315;-81
2023/07/11 21:01:39;;;;;;;7.60;5.00;;;;;;;17.69;71.02;99016.38;274024;1266;22489;-77
2023/07/11 21:07:41;;;;;;;9.20;4.90;;;;;;;17.51;71.87;99010.91;274027;1266;22255;-77
2023/07/11 21:13:43;;;;;;;11.80;5.80;;;;;;;17.34;72.69;99009.42;273914;1266;23320;-77
2023/07/11 21:20:07;;;;;;;8.10;4.90;;;;;;;17.28;73.93;99006.04;274095;1266;22206;-77
2023/07/11 21:26:14;;;;;;;8.30;4.60;;;;;;;17.18;74.53;98999.64;274095;1269;22816;-76
2023/07/11 21:32:17;;;;;;;10.50;5.40;;;;;;;17.01;75.61;98988.98;273923;1266;23405;-77
2023/07/11 21:38:23;;;;;;;11.80;6.30;;;;;;;16.93;75.95;98982.70;273906;1266;22581;-77
2023/07/11 21:44:25;;;;;;;10.20;6.10;;;;;;;16.83;75.98;98976.30;274166;1266;22918;-77
2023/07/11 21:50:40;;;;;;;12.20;6.40;;;;;;;16.71;77.17;98973.29;273866;1261;22359;-76
2023/07/11 21:56:42;;;;;;;12.40;6.10;;;;;;;16.63;77.54;98967.02;273888;1254;22171;-77
2023/07/11 22:02:43;;;;;;;14.00;7.00;;;;;;;16.54;78.25;98959.31;273948;1251;22407;-78
2023/07/11 22:08:45;;;;;;;11.80;6.70;;;;;;;16.40;78.84;98958.45;273889;1266;22412;-77
2023/07/11 22:14:47;;;;;;;12.10;8.20;;;;;;;16.29;79.65;98947.14;273900;1266;22196;-77
2023/07/11 22:20:49;;;;;;;14.20;8.20;;;;;;;16.13;79.99;98935.52;274008;1266;22229;-76
2023/07/11 22:27:11;;;;;;;14.70;8.60;;;;;;;15.97;80.23;98930.96;273787;1253;23211;-77
2023/07/11 22:33:14;;;;;;;15.20;8.50;;;;;;;15.90;81.03;98925.90;273755;1254;22458;-76
2023/07/11 22:39:15;;;;;;;15.00;8.40;;;;;;;15.84;81.58;98919.75;272783;1266;23413;-77
2023/07/11 22:45:17;;;;;;;11.80;8.20;;;;;;;15.70;82.19;98919.44;273872;1266;22356;-77
2023/07/11 22:51:19;;;;;;;14.90;8.30;;;;;;;15.59;82.57;98904.41;273935;1259;22332;-77
2023/07/11 22:57:20;;;;;;;17.30;9.00;;;;;;;15.47;83.00;98894.05;273802;1266;22305;-77
2023/07/11 23:03:23;;;;;;;11.30;7.30;;;;;;;15.40;83.57;98895.69;272211;1266;22344;-77
2023/07/11 23:09:25;;;;;;;12.40;8.20;;;;;;;15.39;84.51;98900.74;273615;1257;22553;-77
2023/07/11 23:15:27;;;;;;;13.40;7.90;;;;;;;15.40;85.05;98896.01;273701;1266;22222;-76
2023/07/11 23:21:30;;;;;;;12.30;7.20;;;;;;;15.38;85.78;98906.11;271913;1266;23646;-77
2023/07/11 23:27:32;;;;;;;11.30;7.20;;;;;;;15.40;86.10;98913.18;271781;1266;22369;-77
2023/07/11 23:33:34;;;;;;;10.60;7.70;;;;;;;15.43;86.44;98928.13;270843;1254;22566;-76
2023/07/11 23:39:56;;;;;;;10.80;7.60;;;;;;;15.33;86.49;98951.38;271013;1263;22909;-76
2023/07/11 23:45:59;;;;;;;13.70;9.30;;;;;;;15.25;86.87;98953.48;272114;1266;24196;-77
2023/07/11 23:52:01;;;;;;;14.20;8.90;;;;;;;15.20;86.95;98949.35;270489;1259;22215;-77
2023/07/11 23:58:03;;;;;;;14.10;9.60;;;;;;;15.08;87.04;98951.34;271381;1266;22529;-77
